Time;durP1;ratioP1;P1;durP2;ratioP2;P2;SDS_P1;SDS_P2;PMS_P1;PMS_P2;Temp;Humidity;BMP_temperature;BMP_pressure;BME280_temperature;BME280_humidity;BME280_pressure;Samples;Min_cycle;Max_cycle;Signal;HPM_P1;HPM_P2
2021/09/12 00:00:59;;;;;;;86.72;63.68;;;;;;;13.87;75.31;99555.36;1641461;87;21019;-71
2021/09/12 00:03:29;;;;;;;73.60;47.43;;;;;;;13.85;75.50;99559.63;1641433;87;21568;-73
2021/09/12 00:05:56;;;;;;;80.57;55.45;;;;;;;13.83;75.64;99557.20;1613623;87;21051;-73
2021/09/12 00:08:26;;;;;;;69.75;45.08;;;;;;;13.81;75.70;99556.73;1641430;87;21007;-74
2021/09/12 00:10:57;;;;;;;64.80;37.67;;;;;;;13.80;75.82;99559.25;1641257;87;21514;-74
2021/09/12 00:13:25;;;;;;;52.20;34.67;;;;;;;13.74;76.11;99555.91;1641510;87;21140;-72
2021/09/12 00:15:53;;;;;;;61.55;39.65;;;;;;;13.69;76.32;99560.83;1641123;87;21041;-74
2021/09/12 00:18:23;;;;;;;60.30;38.70;;;;;;;13.67;76.49;99561.17;1641360;87;21070;-72
2021/09/12 00:20:51;;;;;;;74.67;51.88;;;;;;;13.70;76.41;99564.64;1641678;87;21014;-72
2021/09/12 00:23:17;;;;;;;70.30;50.70;;;;;;;13.77;76.20;99557.77;1613576;87;21066;-73
2021/09/12 00:25:44;;;;;;;66.40;44.73;;;;;;;13.77;76.16;99561.92;1641600;87;21022;-71
2021/09/12 00:28:12;;;;;;;62.85;42.95;;;;;;;13.74;76.17;99560.63;1641054;87;21054;-73
2021/09/12 00:30:41;;;;;;;60.45;42.10;;;;;;;13.72;76.20;99558.77;1638043;87;21041;-74
2021/09/12 00:33:09;;;;;;;74.55;51.10;;;;;;;13.70;76.29;99562.47;1640525;87;21049;-74
2021/09/12 00:35:41;;;;;;;72.62;46.00;;;;;;;13.67;76.23;99558.97;1639854;86;21154;-73
2021/09/12 00:38:08;;;;;;;64.15;45.63;;;;;;;13.69;76.13;99562.22;1619208;87;22040;-72
2021/09/12 00:40:37;;;;;;;71.60;45.88;;;;;;;13.68;76.11;99559.23;1613421;87;21109;-71
2021/09/12 00:43:04;;;;;;;66.77;40.70;;;;;;;13.61;76.25;99563.33;1622634;87;21022;-73
2021/09/12 00:45:33;;;;;;;55.55;37.70;;;;;;;13.54;76.46;99564.48;1641659;87;21094;-73
2021/09/12 00:48:08;;;;;;;56.83;36.10;;;;;;;13.50;76.60;99560.72;1602256;87;22623;-72
2021/09/12 00:50:41;;;;;;;59.50;39.63;;;;;;;13.52;76.65;99562.62;1613188;87;21077;-74
2021/09/12 00:53:11;;;;;;;60.08;39.33;;;;;;;13.46;76.82;99559.80;1609943;87;21081;-73
2021/09/12 00:55:41;;;;;;;54.75;36.68;;;;;;;13.34;76.94;99563.31;1609954;87;20995;-72
2021/09/12 00:58:12;;;;;;;58.92;39.10;;;;;;;13.32;77.06;99560.07;1641578;87;21002;-72
2021/09/12 01:00:43;;;;;;;60.15;38.98;;;;;;;13.36;76.87;99557.66;1634843;87;21061;-73
2021/09/12 01:03:10;;;;;;;60.28;40.45;;;;;;;13.40;76.72;99560.57;1641205;87;21494;-74
2021/09/12 01:05:37;;;;;;;64.05;42.20;;;;;;;13.45;76.47;99558.16;1636974;85;21022;-73
2021/09/12 01:08:07;;;;;;;54.00;37.78;;;;;;;13.47;76.23;99552.54;1638858;87;21026;-72
2021/09/12 01:10:37;;;;;;;56.37;38.13;;;;;;;13.51;75.94;99553.50;1641309;87;21078;-71
2021/09/12 01:13:06;;;;;;;65.75;39.33;;;;;;;13.54;75.71;99558.13;1640441;87;21115;-73
2021/09/12 01:15:34;;;;;;;54.98;36.98;;;;;;;13.56;75.53;99559.39;1629925;87;21007;-74
2021/09/12 01:18:02;;;;;;;54.33;35.75;;;;;;;13.58;75.39;99559.87;1638144;87;21097;-74
2021/09/12 01:20:28;;;;;;;55.63;35.95;;;;;;;13.51;75.71;99559.03;1641325;87;21077;-72
2021/09/12 01:23:02;;;;;;;59.77;36.48;;;;;;;13.44;76.09;99557.94;1640023;87;21502;-72
2021/09/12 01:25:43;;;;;;;57.90;33.78;;;;;;;13.35;76.51;99560.77;1640906;87;21683;-72
2021/09/12 01:28:17;;;;;;;48.20;31.68;;;;;;;13.28;76.81;99559.93;1641240;87;21062;-74
2021/09/12 01:30:48;;;;;;;54.70;33.05;;;;;;;13.21;77.10;99559.09;1639043;87;21065;-72
2021/09/12 01:33:15;;;;;;;52.00;33.90;;;;;;;13.17;77.35;99560.11;1613477;87;21120;-71
2021/09/12 01:35:46;;;;;;;57.03;33.28;;;;;;;13.16;77.44;99559.29;1643964;85;21129;-71
2021/09/12 01:38:15;;;;;;;60.73;36.08;;;;;;;13.20;77.52;99551.95;1641294;86;21632;-71
2021/09/12 01:40:47;;;;;;;61.60;36.53;;;;;;;13.18;77.73;99557.56;1641317;86;21606;-73
2021/09/12 01:43:20;;;;;;;58.65;34.75;;;;;;;13.12;77.88;99555.56;1641132;87;21038;-74
2021/09/12 01:45:50;;;;;;;62.62;34.43;;;;;;;13.12;77.99;99560.53;1641225;86;21546;-73
2021/09/12 01:48:19;;;;;;;59.58;33.67;;;;;;;13.17;77.81;99557.34;1608540;87;21117;-72
2021/09/12 01:50:51;;;;;;;52.03;32.58;;;;;;;13.23;77.49;99551.83;1640176;87;21057;-72
2021/09/12 01:53:17;;;;;;;54.30;34.23;;;;;;;13.28;77.39;99554.40;1603185;87;21054;-73
2021/09/12 01:55:46;;;;;;;56.25;35.10;;;;;;;13.31;77.17;99550.95;1615268;87;21002;-73
2021/09/12 01:58:42;;;;;;;57.17;38.33;;;;;;;13.36;76.99;99556.84;1640699;87;21503;-73
2021/09/12 02:01:19;;;;;;;64.17;38.85;;;;;;;13.39;76.74;99556.20;1632264;87;21658;-74
2021/09/12 02:03:50;;;;;;;51.58;37.05;;;;;;;13.38;76.46;99544.88;1632466;87;21110;-73
2021/09/12 02:06:19;;;;;;;54.45;36.68;;;;;;;13.33;76.34;99550.05;1632390;87;21038;-72
2021/09/12 02:08:46;;;;;;;49.67;34.38;;;;;;;13.32;76.37;99548.44;1603561;87;21534;-73
2021/09/12 02:11:17;;;;;;;51.63;34.10;;;;;;;13.31;76.28;99544.03;1632238;87;21597;-72
2021/09/12 02:14:04;;;;;;;48.92;30.62;;;;;;;13.31;76.20;99548.75;1614825;87;21090;-74
2021/09/12 02:16:36;;;;;;;54.18;31.77;;;;;;;13.30;76.25;99545.76;1631776;87;21023;-74
2021/09/12 02:19:07;;;;;;;56.98;33.85;;;;;;;13.31;76.17;99550.13;1612166;87;21644;-74
2021/09/12 02:21:39;;;;;;;47.25;32.73;;;;;;;13.30;75.92;99552.11;1632139;87;21030;-74
2021/09/12 02:24:15;;;;;;;55.78;34.43;;;;;;;13.28;75.64;99547.48;1627778;86;21613;-73
2021/09/12 02:27:18;;;;;;;62.62;34.88;;;;;;;13.26;75.42;99545.62;1632142;87;21629;-73
2021/09/12 02:29:46;;;;;;;48.80;32.00;;;;;;;13.14;75.96;99547.18;1629314;87;21054;-73
2021/09/12 02:32:14;;;;;;;47.62;29.35;;;;;;;13.02;76.44;99548.48;1618592;86;22167;-73
2021/09/12 02:34:42;;;;;;;52.60;32.95;;;;;;;13.01;76.45;99547.69;1619531;87;21038;-74
2021/09/12 02:37:11;;;;;;;62.20;36.23;;;;;;;13.02;76.48;99546.53;1627513;86;21066;-72
2021/09/12 02:39:43;;;;;;;50.03;32.90;;;;;;;12.98;76.72;99550.31;1613604;87;21603;-71
2021/09/12 02:42:27;;;;;;;56.83;34.88;;;;;;;12.97;76.90;99547.30;1630910;87;21027;-75
2021/09/12 02:45:16;;;;;;;57.55;35.95;;;;;;;12.90;77.11;99549.20;1588504;87;21055;-73
2021/09/12 02:47:47;;;;;;;54.45;34.58;;;;;;;12.89;77.16;99545.65;1629099;87;21014;-73
2021/09/12 02:53:36;;;;;;;47.90;28.02;;;;;;;12.94;76.85;99543.25;1624127;87;21613;-75
2021/09/12 02:56:36;;;;;;;49.80;30.23;;;;;;;12.97;76.71;99549.49;1624301;85;21063;-74
2021/09/12 02:59:58;;;;;;;54.85;33.05;;;;;;;12.95;76.84;99549.02;1540605;91;21078;-74
2021/09/12 03:02:47;;;;;;;53.98;32.67;;;;;;;12.88;77.23;99546.78;1586760;88;21083;-74
2021/09/12 03:08:42;;;;;;;54.98;35.58;;;;;;;12.86;77.60;99538.59;1578282;90;21059;-73
2021/09/12 03:12:03;;;;;;;59.35;36.23;;;;;;;12.80;77.83;99544.88;1579722;90;21166;-72
2021/09/12 03:14:44;;;;;;;57.67;32.98;;;;;;;12.81;77.68;99533.26;1524843;93;21698;-71
2021/09/12 03:20:42;;;;;;;46.00;29.05;;;;;;;12.80;77.62;99535.77;1530925;93;21195;-74
2021/09/12 03:23:17;;;;;;;49.65;32.25;;;;;;;12.81;77.56;99528.52;1606131;87;21626;-72
2021/09/12 03:26:17;;;;;;;48.90;32.23;;;;;;;12.84;77.11;99534.78;1592398;88;21055;-72
2021/09/12 03:29:10;;;;;;;50.80;33.90;;;;;;;12.81;77.11;99529.90;1639820;87;21083;-73
2021/09/12 03:32:16;;;;;;;50.48;33.25;;;;;;;12.80;77.27;99532.44;1630210;88;21030;-73
2021/09/12 03:35:01;;;;;;;51.35;33.45;;;;;;;12.82;77.08;99530.16;1622113;88;21046;-74
2021/09/12 03:37:28;;;;;;;41.42;29.55;;;;;;;12.80;77.07;99531.05;1638371;87;21542;-74
2021/09/12 03:39:59;;;;;;;52.40;30.55;;;;;;;12.76;77.34;99535.66;1622621;87;21153;-72
2021/09/12 03:42:31;;;;;;;51.28;30.68;;;;;;;12.68;77.60;99533.72;1626018;87;20991;-71
2021/09/12 03:45:00;;;;;;;52.48;31.97;;;;;;;12.61;77.86;99536.45;1633552;87;21039;-72
2021/09/12 03:47:30;;;;;;;48.23;29.90;;;;;;;12.56;78.07;99536.64;1599482;87;21039;-73
2021/09/12 03:49:59;;;;;;;48.83;31.10;;;;;;;12.56;78.29;99538.02;1641133;87;21014;-72
2021/09/12 03:52:31;;;;;;;51.35;31.68;;;;;;;12.63;78.22;99537.50;1638161;86;21554;-72
2021/09/12 03:55:00;;;;;;;57.03;30.97;;;;;;;12.71;78.05;99542.75;1632329;88;21554;-74
2021/09/12 03:57:30;;;;;;;50.48;32.67;;;;;;;12.77;77.83;99540.03;1611588;87;21046;-73
2021/09/12 03:59:58;;;;;;;48.45;30.50;;;;;;;12.82;77.67;99540.40;1630279;88;21044;-72
2021/09/12 04:02:25;;;;;;;44.53;28.75;;;;;;;12.87;77.44;99545.17;1624704;86;21087;-73
2021/09/12 04:04:51;;;;;;;44.50;28.85;;;;;;;12.93;77.27;99536.68;1629587;88;21136;-74
2021/09/12 04:07:23;;;;;;;47.15;28.85;;;;;;;12.97;77.21;99541.77;1629418;87;21074;-74
2021/09/12 04:09:51;;;;;;;48.35;30.95;;;;;;;13.01;77.24;99534.42;1626294;88;21094;-72
2021/09/12 04:12:17;;;;;;;49.50;32.03;;;;;;;13.06;77.32;99541.14;1629895;87;21511;-73
2021/09/12 04:14:48;;;;;;;61.35;33.88;;;;;;;13.12;77.40;99538.97;1590656;88;21073;-71
2021/09/12 04:17:15;;;;;;;59.00;35.48;;;;;;;13.18;77.42;99534.05;1602778;88;21057;-74
2021/09/12 04:19:42;;;;;;;51.80;32.63;;;;;;;13.22;77.41;99537.18;1620571;88;21472;-72
2021/09/12 04:22:09;;;;;;;46.35;30.08;;;;;;;13.29;77.32;99540.00;1617259;88;21083;-73
2021/09/12 04:24:37;;;;;;;47.25;31.25;;;;;;;13.33;77.27;99537.59;1602185;88;21067;-71
2021/09/12 04:27:05;;;;;;;57.88;32.90;;;;;;;13.38;77.28;99536.01;1620781;88;21023;-74
2021/09/12 04:29:33;;;;;;;54.15;32.50;;;;;;;13.44;77.32;99537.19;1602752;88;21300;-71
2021/09/12 04:31:59;;;;;;;54.45;33.05;;;;;;;13.51;77.56;99540.22;1602342;88;21527;-72
2021/09/12 04:34:26;;;;;;;50.95;33.35;;;;;;;13.58;77.74;99532.19;1602546;88;21580;-74
2021/09/12 04:36:54;;;;;;;52.08;30.27;;;;;;;13.65;77.85;99535.00;1603410;88;21046;-74
2021/09/12 04:39:24;;;;;;;42.45;27.75;;;;;;;13.70;77.92;99530.63;1620438;88;21162;-73
2021/09/12 04:41:53;;;;;;;51.25;30.82;;;;;;;13.73;78.04;99530.73;1620485;88;21039;-74
2021/09/12 04:44:20;;;;;;;42.20;26.42;;;;;;;13.72;78.17;99530.51;1620645;88;21582;-75
2021/09/12 04:46:46;;;;;;;49.83;29.37;;;;;;;13.73;78.36;99525.79;1602950;88;21059;-71
2021/09/12 04:49:13;;;;;;;48.25;31.27;;;;;;;13.75;78.55;99522.90;1620505;88;21047;-74
2021/09/12 04:51:43;;;;;;;54.27;33.28;;;;;;;13.78;78.70;99518.66;1620806;88;21028;-73
2021/09/12 04:54:10;;;;;;;48.68;31.82;;;;;;;13.82;78.85;99520.14;1620690;88;21927;-73
2021/09/12 04:56:36;;;;;;;46.33;32.25;;;;;;;13.87;78.96;99517.97;1611527;88;21046;-72
2021/09/12 04:59:04;;;;;;;46.28;32.40;;;;;;;13.94;79.08;99520.17;1620433;88;21071;-71
2021/09/12 05:01:33;;;;;;;43.17;30.57;;;;;;;14.02;79.42;99519.86;1616676;87;21011;-72
2021/09/12 05:04:02;;;;;;;45.98;29.77;;;;;;;14.07;79.69;99514.10;1632477;88;21356;-70
2021/09/12 05:06:29;;;;;;;45.28;29.77;;;;;;;14.16;79.92;99515.95;1632270;88;21155;-71
2021/09/12 05:08:57;;;;;;;46.65;30.37;;;;;;;14.23;80.09;99506.47;1633923;87;21018;-73
2021/09/12 05:11:25;;;;;;;49.27;30.50;;;;;;;14.31;80.24;99515.25;1632181;88;21133;-72
2021/09/12 05:13:55;;;;;;;46.00;31.30;;;;;;;14.40;80.41;99508.22;1629264;88;20976;-71
2021/09/12 05:16:22;;;;;;;52.27;31.95;;;;;;;14.52;80.51;99506.62;1611952;88;21491;-72
2021/09/12 05:18:51;;;;;;;50.33;32.63;;;;;;;14.63;80.60;99506.94;1628860;88;21038;-72
2021/09/12 05:21:18;;;;;;;48.25;29.85;;;;;;;14.75;80.65;99506.12;1632247;88;21110;-70
2021/09/12 05:23:45;;;;;;;47.98;29.77;;;;;;;14.85;80.92;99504.28;1632398;88;21030;-71
2021/09/12 05:26:16;;;;;;;45.17;30.60;;;;;;;14.98;81.10;99507.83;1629451;87;21066;-71
2021/09/12 05:28:42;;;;;;;42.73;29.02;;;;;;;15.11;81.29;99503.64;1633169;87;21049;-73
2021/09/12 05:31:12;;;;;;;44.90;27.73;;;;;;;15.26;81.54;99502.09;1631710;87;21077;-73
2021/09/12 05:33:39;;;;;;;47.48;28.92;;;;;;;15.40;81.99;99502.52;1632132;88;21014;-71
2021/09/12 05:36:07;;;;;;;40.23;26.17;;;;;;;15.56;82.22;99494.20;1613055;87;21019;-71
2021/09/12 05:38:34;;;;;;;35.43;22.75;;;;;;;15.73;82.18;99502.59;1629367;87;21110;-76
2021/09/12 05:41:02;;;;;;;37.08;23.20;;;;;;;15.88;81.90;99503.77;1632318;88;21011;-72
2021/09/12 05:43:31;;;;;;;42.90;25.05;;;;;;;16.04;81.43;99505.19;1635781;87;21209;-75
2021/09/12 05:46:03;;;;;;;50.48;25.45;;;;;;;16.20;81.00;99505.20;1600846;88;21019;-73
2021/09/12 05:48:30;;;;;;;51.18;28.30;;;;;;;16.35;79.98;99500.80;1641405;87;21054;-74
2021/09/12 05:50:56;;;;;;;46.88;25.15;;;;;;;16.50;79.10;99507.50;1626602;87;21460;-75
2021/09/12 05:53:24;;;;;;;48.30;24.35;;;;;;;16.67;78.62;99506.88;1627175;86;21588;-75
2021/09/12 05:55:50;;;;;;;42.23;22.98;;;;;;;16.81;77.85;99499.45;1641508;86;21845;-72
2021/09/12 05:58:19;;;;;;;44.33;20.37;;;;;;;16.95;77.02;99500.94;1600686;88;21058;-73
2021/09/12 06:00:47;;;;;;;33.18;20.82;;;;;;;17.09;76.64;99500.45;1630189;88;21122;-76
2021/09/12 06:03:16;;;;;;;37.60;19.07;;;;;;;17.23;75.81;99504.94;1624606;87;21035;-76
2021/09/12 06:05:49;;;;;;;34.63;19.45;;;;;;;17.38;75.36;99498.29;1620894;88;21016;-76
2021/09/12 06:08:19;;;;;;;28.60;18.42;;;;;;;17.54;74.86;99501.58;1601635;88;21598;-76
2021/09/12 06:10:47;;;;;;;27.73;18.50;;;;;;;17.66;74.80;99506.97;1620704;88;21027;-73
2021/09/12 06:13:25;;;;;;;26.85;18.02;;;;;;;17.78;73.67;99507.97;1616705;88;21536;-75
2021/09/12 06:15:58;;;;;;;36.60;17.10;;;;;;;17.90;73.54;99505.02;1612970;88;21107;-72
2021/09/12 06:18:24;;;;;;;27.95;17.02;;;;;;;18.05;73.46;99501.88;1620841;87;21047;-74
2021/09/12 06:20:56;;;;;;;33.38;17.55;;;;;;;18.20;73.14;99502.17;1620296;88;21717;-75
2021/09/12 06:23:22;;;;;;;37.67;18.75;;;;;;;18.35;72.70;99509.60;1620556;88;21507;-73
2021/09/12 06:25:50;;;;;;;30.05;18.48;;;;;;;18.51;71.04;99506.44;1620499;88;21094;-71
2021/09/12 06:28:21;;;;;;;43.70;19.35;;;;;;;18.63;69.78;99507.61;1601951;88;21527;-74
2021/09/12 06:30:49;;;;;;;31.60;17.92;;;;;;;18.75;69.68;99508.59;1620508;88;21603;-70
2021/09/12 06:33:16;;;;;;;31.35;17.02;;;;;;;18.87;69.11;99510.36;1617411;88;21173;-73
2021/09/12 06:35:42;;;;;;;40.80;16.75;;;;;;;18.97;68.93;99507.69;1620622;88;21528;-74
2021/09/12 06:38:10;;;;;;;25.00;14.58;;;;;;;19.09;68.11;99510.84;1616840;86;21637;-72
2021/09/12 06:40:38;;;;;;;20.35;13.48;;;;;;;19.24;67.25;99512.47;1617735;88;21131;-72
2021/09/12 06:43:05;;;;;;;25.37;14.38;;;;;;;19.33;66.15;99514.36;1620495;88;21072;-71
2021/09/12 06:45:31;;;;;;;23.15;13.93;;;;;;;19.44;65.39;99517.30;1620434;88;21083;-75
2021/09/12 06:48:03;;;;;;;24.87;12.90;;;;;;;19.55;65.32;99509.63;1620286;88;21126;-75
2021/09/12 06:50:32;;;;;;;21.93;12.25;;;;;;;19.65;65.03;99511.71;1622979;87;21126;-75
2021/09/12 06:52:58;;;;;;;22.48;12.18;;;;;;;19.76;63.90;99518.02;1618344;88;21055;-73
2021/09/12 06:55:26;;;;;;;18.65;12.43;;;;;;;19.83;63.74;99512.51;1619552;88;21317;-73
2021/09/12 06:57:52;;;;;;;19.07;12.35;;;;;;;19.91;63.80;99511.39;1620349;88;21126;-71
2021/09/12 07:00:19;;;;;;;17.12;12.05;;;;;;;19.98;63.42;99516.86;1620633;88;21157;-74
2021/09/12 07:02:49;;;;;;;17.98;12.25;;;;;;;20.05;62.07;99513.55;1620709;87;21071;-75
2021/09/12 07:05:16;;;;;;;18.35;11.20;;;;;;;20.13;61.72;99519.22;1617023;88;21083;-77
2021/09/12 07:07:44;;;;;;;19.48;12.13;;;;;;;20.20;62.00;99517.86;1620456;88;21091;-71
2021/09/12 07:10:11;;;;;;;20.43;11.63;;;;;;;20.28;61.61;99523.72;1594419;88;21538;-72
2021/09/12 07:12:40;;;;;;;40.23;13.05;;;;;;;20.37;61.66;99522.61;1618028;88;21047;-72
2021/09/12 07:15:19;;;;;;;18.85;10.90;;;;;;;20.42;61.50;99516.66;1620784;88;21060;-74
2021/09/12 07:17:49;;;;;;;20.62;11.65;;;;;;;20.47;61.10;99521.09;1618532;88;21087;-73
2021/09/12 07:20:16;;;;;;;19.37;12.55;;;;;;;20.52;60.37;99524.31;1620700;88;21083;-74
2021/09/12 07:22:46;;;;;;;22.35;10.95;;;;;;;20.56;60.04;99527.13;1603013;88;21816;-70
2021/09/12 07:25:12;;;;;;;21.68;12.68;;;;;;;20.59;59.61;99521.37;1620423;88;21047;-72
2021/09/12 07:27:41;;;;;;;27.20;13.53;;;;;;;20.64;59.94;99524.59;1620340;88;21515;-73
2021/09/12 07:30:10;;;;;;;16.15;12.73;;;;;;;20.70;59.47;99521.43;1620689;88;21031;-72
2021/09/12 07:32:37;;;;;;;32.88;12.45;;;;;;;20.76;59.13;99521.29;1602193;88;21122;-71
2021/09/12 07:35:06;;;;;;;16.85;12.37;;;;;;;20.80;59.10;99521.51;1608347;88;21113;-71
2021/09/12 07:37:37;;;;;;;16.32;13.05;;;;;;;20.88;58.00;99529.34;1620130;88;21039;-75
2021/09/12 07:40:06;;;;;;;24.77;13.85;;;;;;;20.92;58.00;99530.18;1620394;88;21019;-75
2021/09/12 07:42:34;;;;;;;19.55;13.50;;;;;;;20.97;56.41;99525.41;1620190;88;21070;-75
2021/09/12 07:45:04;;;;;;;21.37;12.98;;;;;;;20.98;55.65;99527.04;1602231;88;21511;-71
2021/09/12 07:47:36;;;;;;;22.15;12.65;;;;;;;21.00;56.56;99527.46;1618306;88;21015;-72
2021/09/12 07:50:03;;;;;;;19.40;12.50;;;;;;;21.05;56.45;99528.48;1601827;88;21023;-76
2021/09/12 07:52:29;;;;;;;19.42;11.70;;;;;;;21.10;56.50;99529.48;1620854;88;21075;-73
2021/09/12 07:54:56;;;;;;;16.82;12.18;;;;;;;21.14;56.54;99527.52;1620995;87;21086;-71
2021/09/12 07:57:23;;;;;;;18.62;12.30;;;;;;;21.20;55.44;99528.55;1620764;88;21034;-75
2021/09/12 07:59:53;;;;;;;20.75;12.05;;;;;;;21.24;55.84;99533.58;1620783;87;21376;-75
2021/09/12 08:02:20;;;;;;;21.62;12.88;;;;;;;21.30;56.54;99527.80;1601982;85;21110;-73
2021/09/12 08:04:51;;;;;;;24.80;13.30;;;;;;;21.37;56.33;99532.62;1618173;88;21051;-74
2021/09/12 08:07:21;;;;;;;19.40;13.00;;;;;;;21.40;55.70;99531.83;1616891;88;21062;-76
2021/09/12 08:10:09;;;;;;;21.42;12.60;;;;;;;21.42;55.82;99527.23;1621029;88;21039;-75
2021/09/12 08:12:41;;;;;;;19.40;12.47;;;;;;;21.49;55.99;99528.66;1620391;88;21147;-74
2021/09/12 08:15:13;;;;;;;19.37;12.05;;;;;;;21.59;56.02;99528.49;1620587;88;21096;-76
2021/09/12 08:17:42;;;;;;;19.25;12.45;;;;;;;21.66;55.96;99518.70;1610064;87;21559;-75
2021/09/12 08:20:11;;;;;;;19.57;11.60;;;;;;;21.75;55.22;99526.75;1613027;88;21169;-74
2021/09/12 08:22:38;;;;;;;17.60;11.40;;;;;;;21.81;54.64;99529.38;1609911;88;21073;-74
2021/09/12 08:25:11;;;;;;;23.98;11.85;;;;;;;21.87;54.44;99526.38;1620620;87;21019;-74
2021/09/12 08:27:44;;;;;;;17.32;10.72;;;;;;;21.97;54.25;99524.00;1618665;88;21381;-77
2021/09/12 08:30:10;;;;;;;18.27;10.68;;;;;;;22.05;53.96;99528.42;1618514;86;21076;-73
2021/09/12 08:32:36;;;;;;;18.02;10.43;;;;;;;22.15;53.64;99518.41;1621130;88;21717;-75
2021/09/12 08:35:07;;;;;;;19.40;12.28;;;;;;;22.23;52.95;99516.39;1602340;88;21051;-77
2021/09/12 08:37:34;;;;;;;20.60;11.48;;;;;;;22.25;53.06;99521.00;1620571;88;21547;-74
2021/09/12 08:40:06;;;;;;;17.98;10.93;;;;;;;22.29;52.48;99516.21;1617304;88;21515;-73
2021/09/12 08:42:33;;;;;;;14.10;9.78;;;;;;;22.38;52.49;99513.01;1602605;88;20996;-75
2021/09/12 08:44:59;;;;;;;18.27;10.08;;;;;;;22.44;50.86;99517.00;1599415;88;21041;-74
2021/09/12 08:47:26;;;;;;;33.53;12.10;;;;;;;22.49;51.07;99519.41;1602469;88;21107;-76
2021/09/12 08:49:52;;;;;;;15.38;11.08;;;;;;;22.55;50.88;99522.62;1618572;88;21126;-77
2021/09/12 08:52:28;;;;;;;17.15;11.73;;;;;;;22.63;51.43;99522.62;1617376;88;21515;-76
2021/09/12 08:54:58;;;;;;;15.00;10.43;;;;;;;22.69;50.02;99519.63;1619785;88;21027;-73
2021/09/12 08:57:24;;;;;;;11.30;8.85;;;;;;;22.72;49.60;99524.42;1620520;88;21032;-76
2021/09/12 08:59:51;;;;;;;17.55;8.75;;;;;;;22.74;48.10;99521.98;1601661;88;21105;-74
2021/09/12 09:02:29;;;;;;;19.52;10.50;;;;;;;22.72;49.06;99518.19;1589842;88;21060;-72
2021/09/12 09:05:02;;;;;;;16.77;10.60;;;;;;;22.74;48.38;99512.16;1630927;87;21178;-74
2021/09/12 09:07:31;;;;;;;16.75;11.03;;;;;;;22.79;49.29;99517.37;1630426;87;21039;-71
2021/09/12 09:10:01;;;;;;;16.97;10.25;;;;;;;22.89;49.70;99512.95;1621453;87;21057;-73
2021/09/12 09:12:36;;;;;;;20.88;10.18;;;;;;;23.00;50.66;99514.31;1632977;87;21058;-75
2021/09/12 09:15:22;;;;;;;14.90;10.00;;;;;;;23.08;48.40;99513.08;1630142;87;21646;-71
2021/09/12 09:17:53;;;;;;;22.87;10.38;;;;;;;23.13;49.69;99518.09;1611611;87;21038;-74
2021/09/12 09:20:30;;;;;;;18.42;10.35;;;;;;;23.17;49.05;99516.86;1632066;87;21044;-72
2021/09/12 09:22:57;;;;;;;16.52;9.75;;;;;;;23.26;49.57;99508.60;1642176;86;21101;-73
2021/09/12 09:25:27;;;;;;;19.82;10.10;;;;;;;23.40;49.82;99510.55;1641412;86;21506;-73
2021/09/12 09:28:03;;;;;;;16.65;9.88;;;;;;;23.53;49.73;99505.28;1639529;87;21060;-72
2021/09/12 09:30:54;;;;;;;21.05;10.95;;;;;;;23.63;49.01;99504.42;1640817;86;21098;-75
2021/09/12 09:33:31;;;;;;;17.90;10.82;;;;;;;23.71;47.77;99506.61;1638044;87;21062;-72
2021/09/12 09:36:04;;;;;;;18.32;10.80;;;;;;;23.59;47.49;99498.05;1639567;87;21086;-72
2021/09/12 09:38:46;;;;;;;17.77;9.90;;;;;;;23.54;48.70;99494.26;1639324;87;21386;-74
2021/09/12 09:41:18;;;;;;;33.48;12.58;;;;;;;23.61;49.40;99490.60;1639398;86;21562;-74
2021/09/12 09:43:51;;;;;;;25.57;10.80;;;;;;;23.69;49.31;99490.75;1612554;87;21058;-74
2021/09/12 09:46:31;;;;;;;21.20;10.95;;;;;;;23.80;48.30;99497.09;1629990;87;21113;-70
2021/09/12 09:49:24;;;;;;;16.23;11.33;;;;;;;23.82;48.13;99488.24;1632089;85;21113;-70
2021/09/12 09:52:00;;;;;;;14.40;10.30;;;;;;;23.92;48.32;99492.19;1640200;86;21081;-74
2021/09/12 09:54:29;;;;;;;13.43;10.75;;;;;;;24.05;48.45;99491.10;1640548;86;21117;-73
2021/09/12 09:56:56;;;;;;;14.55;10.40;;;;;;;24.11;50.02;99492.84;1641482;86;21467;-73
2021/09/12 09:59:25;;;;;;;17.20;10.88;;;;;;;24.16;48.14;99489.00;1602887;87;21078;-72
2021/09/12 10:02:04;;;;;;;13.58;10.08;;;;;;;24.19;48.67;99490.22;1640222;87;21121;-76
2021/09/12 10:04:46;;;;;;;14.85;9.58;;;;;;;24.23;46.63;99488.16;1640800;87;21120;-76
2021/09/12 10:07:20;;;;;;;16.70;10.37;;;;;;;24.17;46.71;99485.61;1645703;87;21036;-71
2021/09/12 10:09:46;;;;;;;17.57;9.88;;;;;;;24.18;47.07;99490.02;1623230;87;21087;-76
2021/09/12 10:12:18;;;;;;;14.15;10.18;;;;;;;24.23;45.35;99486.76;1644309;87;21095;-72
2021/09/12 10:14:56;;;;;;;14.38;10.03;;;;;;;24.25;46.11;99485.74;1644352;87;21650;-71
2021/09/12 10:17:31;;;;;;;12.90;9.65;;;;;;;24.33;47.11;99489.91;1644757;87;21346;-75
2021/09/12 10:20:11;;;;;;;14.68;10.13;;;;;;;24.41;46.31;99494.25;1618883;86;21907;-70
2021/09/12 10:22:55;;;;;;;16.57;10.60;;;;;;;24.39;45.38;99492.45;1645027;87;21036;-70
2021/09/12 10:25:25;;;;;;;19.32;10.08;;;;;;;24.40;46.26;99489.22;1645469;87;21074;-74
2021/09/12 10:28:05;;;;;;;17.10;10.58;;;;;;;24.45;45.78;99486.55;1643483;87;21047;-75
2021/09/12 10:30:42;;;;;;;14.55;10.13;;;;;;;24.59;47.03;99483.41;1643129;87;21021;-71
2021/09/12 10:33:20;;;;;;;17.40;11.28;;;;;;;24.63;44.78;99482.77;1643721;87;21099;-72
2021/09/12 10:35:59;;;;;;;14.93;10.75;;;;;;;24.64;45.45;99473.09;1645653;87;21135;-74
2021/09/12 10:38:40;;;;;;;14.30;9.70;;;;;;;24.76;45.46;99471.16;1644216;87;21107;-75
2021/09/12 10:41:14;;;;;;;20.17;10.25;;;;;;;24.87;46.62;99475.87;1611901;88;21125;-73
2021/09/12 10:43:47;;;;;;;13.20;9.35;;;;;;;24.97;45.84;99471.36;1597790;89;21146;-70
2021/09/12 10:46:19;;;;;;;15.70;9.90;;;;;;;25.09;45.37;99474.23;1639804;87;21850;-73
2021/09/12 10:49:04;;;;;;;16.02;10.32;;;;;;;25.15;44.15;99466.91;1642963;87;21072;-74
2021/09/12 10:51:32;;;;;;;15.70;10.38;;;;;;;25.13;43.61;99470.78;1645538;87;21697;-75
2021/09/12 10:54:02;;;;;;;13.60;9.53;;;;;;;25.16;44.51;99469.93;1621247;87;38976;-74
2021/09/12 10:56:35;;;;;;;15.93;11.35;;;;;;;25.22;43.96;99467.42;1646479;87;21590;-77
2021/09/12 10:59:10;;;;;;;12.98;9.65;;;;;;;25.28;42.86;99463.70;1583125;88;22247;-74
2021/09/12 11:01:48;;;;;;;13.80;9.38;;;;;;;25.33;43.56;99460.24;1619645;88;21173;-73
2021/09/12 11:04:19;;;;;;;14.33;9.80;;;;;;;25.36;44.44;99456.58;1637625;87;21063;-75
2021/09/12 11:06:49;;;;;;;11.40;9.60;;;;;;;25.38;44.92;99459.77;1611206;88;21173;-77
2021/09/12 11:09:22;;;;;;;13.18;9.58;;;;;;;25.40;45.45;99451.70;1646699;87;21540;-75
2021/09/12 11:12:02;;;;;;;13.60;9.23;;;;;;;25.49;44.10;99456.18;1646672;87;21535;-77
2021/09/12 11:14:29;;;;;;;16.42;10.53;;;;;;;25.52;42.78;99459.55;1646364;87;21501;-73
2021/09/12 11:17:12;;;;;;;21.27;10.70;;;;;;;25.40;41.65;99455.92;1643447;87;21127;-72
2021/09/12 11:19:52;;;;;;;20.35;10.43;;;;;;;25.42;43.17;99455.50;1612358;87;21076;-76
2021/09/12 11:22:21;;;;;;;15.93;9.53;;;;;;;25.47;41.42;99457.21;1646698;86;21552;-76
2021/09/12 11:25:02;;;;;;;14.55;9.48;;;;;;;25.44;42.24;99449.61;1623377;87;21266;-73
2021/09/12 11:27:31;;;;;;;14.23;9.95;;;;;;;25.49;43.37;99447.72;1646529;87;21032;-75
2021/09/12 11:29:59;;;;;;;14.47;9.95;;;;;;;25.47;43.08;99445.94;1646409;87;21052;-76
2021/09/12 11:32:25;;;;;;;13.38;9.43;;;;;;;25.47;41.48;99448.75;1600813;87;21528;-76
2021/09/12 11:34:52;;;;;;;15.68;9.40;;;;;;;25.48;42.83;99445.33;1646439;87;21111;-71
2021/09/12 11:37:22;;;;;;;13.35;8.93;;;;;;;25.55;43.35;99447.24;1625053;87;21356;-72
2021/09/12 11:39:58;;;;;;;11.53;8.90;;;;;;;25.62;43.29;99442.91;1624953;87;21033;-71
2021/09/12 11:42:26;;;;;;;19.17;10.03;;;;;;;25.72;42.92;99446.82;1624423;87;21019;-75
2021/09/12 11:44:55;;;;;;;11.08;8.93;;;;;;;25.79;41.59;99438.86;1625536;87;21063;-73
2021/09/12 11:47:25;;;;;;;13.72;9.78;;;;;;;25.76;41.27;99439.89;1642491;87;21516;-76